sensor_id;sensor_type;location;lat;lon;timestamp;pressure;altitude;pressure_sealevel;temperature;humidity
38880;BME280;25887;30.194;-97.880;2022-10-16T00:00:56;98247.53;;;33.67;33.84
38880;BME280;25887;30.194;-97.880;2022-10-16T00:03:22;98236.63;;;33.61;33.80
38880;BME280;25887;30.194;-97.880;2022-10-16T00:05:48;98243.13;;;33.58;33.36
38880;BME280;25887;30.194;-97.880;2022-10-16T00:08:14;98237.25;;;33.55;33.36
38880;BME280;25887;30.194;-97.880;2022-10-16T00:10:40;98227.88;;;33.50;33.40
38880;BME280;25887;30.194;-97.880;2022-10-16T00:13:06;98233.63;;;33.46;33.43
38880;BME280;25887;30.194;-97.880;2022-10-16T00:15:35;98234.94;;;33.42;33.66
38880;BME280;25887;30.194;-97.880;2022-10-16T00:18:06;98237.03;;;33.38;34.00
38880;BME280;25887;30.194;-97.880;2022-10-16T00:20:34;98239.13;;;33.35;33.68
38880;BME280;25887;30.194;-97.880;2022-10-16T00:23:02;98249.25;;;33.31;34.03
38880;BME280;25887;30.194;-97.880;2022-10-16T00:25:28;98250.50;;;33.27;34.07
38880;BME280;25887;30.194;-97.880;2022-10-16T00:27:54;98239.34;;;33.23;33.83
38880;BME280;25887;30.194;-97.880;2022-10-16T00:30:20;98250.25;;;33.20;33.61
38880;BME280;25887;30.194;-97.880;2022-10-16T00:32:46;98247.22;;;33.15;33.65
38880;BME280;25887;30.194;-97.880;2022-10-16T00:35:11;98240.47;;;33.11;33.88
38880;BME280;25887;30.194;-97.880;2022-10-16T00:37:37;98246.22;;;33.07;33.65
38880;BME280;25887;30.194;-97.880;2022-10-16T00:40:03;98251.03;;;33.03;33.70
38880;BME280;25887;30.194;-97.880;2022-10-16T00:42:29;98259.31;;;33.00;33.80
38880;BME280;25887;30.194;-97.880;2022-10-16T00:44:55;98266.56;;;32.98;33.70
38880;BME280;25887;30.194;-97.880;2022-10-16T00:47:24;98259.03;;;32.93;34.23
38880;BME280;25887;30.194;-97.880;2022-10-16T00:49:53;98265.47;;;32.91;34.22
38880;BME280;25887;30.194;-97.880;2022-10-16T00:52:21;98271.09;;;32.88;34.11
38880;BME280;25887;30.194;-97.880;2022-10-16T00:54:46;98270.41;;;32.86;34.36
38880;BME280;25887;30.194;-97.880;2022-10-16T00:57:14;98271.63;;;32.82;34.48
38880;BME280;25887;30.194;-97.880;2022-10-16T00:59:41;98271.78;;;32.80;34.45
38880;BME280;25887;30.194;-97.880;2022-10-16T01:02:09;98268.56;;;32.77;34.49
38880;BME280;25887;30.194;-97.880;2022-10-16T01:04:36;98275.00;;;32.74;34.41
38880;BME280;25887;30.194;-97.880;2022-10-16T01:12:20;98293.63;;;32.64;34.57
38880;BME280;25887;30.194;-97.880;2022-10-16T01:14:52;98298.41;;;32.61;34.42
38880;BME280;25887;30.194;-97.880;2022-10-16T01:17:21;98292.53;;;32.57;34.11
38880;BME280;25887;30.194;-97.880;2022-10-16T01:22:43;98302.88;;;32.51;34.63
38880;BME280;25887;30.194;-97.880;2022-10-16T01:25:35;98298.84;;;32.47;34.19
38880;BME280;25887;30.194;-97.880;2022-10-16T01:27:57;98306.22;;;32.43;34.61
38880;BME280;25887;30.194;-97.880;2022-10-16T01:30:27;98308.19;;;32.41;34.64
38880;BME280;25887;30.194;-97.880;2022-10-16T01:32:57;98312.00;;;32.38;34.38
38880;BME280;25887;30.194;-97.880;2022-10-16T01:38:34;98316.19;;;32.31;34.51
38880;BME280;25887;30.194;-97.880;2022-10-16T01:40:41;98324.38;;;32.28;34.63
38880;BME280;25887;30.194;-97.880;2022-10-16T01:43:14;98327.31;;;32.25;34.35
38880;BME280;25887;30.194;-97.880;2022-10-16T01:45:41;98335.59;;;32.22;34.64
38880;BME280;25887;30.194;-97.880;2022-10-16T01:48:09;98339.34;;;32.20;34.50
38880;BME280;25887;30.194;-97.880;2022-10-16T01:50:38;98337.13;;;32.15;34.88
38880;BME280;25887;30.194;-97.880;2022-10-16T01:53:11;98335.69;;;32.11;34.72
38880;BME280;25887;30.194;-97.880;2022-10-16T01:55:38;98335.13;;;32.07;35.01
38880;BME280;25887;30.194;-97.880;2022-10-16T01:58:09;98344.34;;;32.03;34.60
38880;BME280;25887;30.194;-97.880;2022-10-16T02:00:36;98346.44;;;32.00;34.91
38880;BME280;25887;30.194;-97.880;2022-10-16T02:03:03;98348.53;;;31.96;35.03
38880;BME280;25887;30.194;-97.880;2022-10-16T02:08:31;98345.69;;;31.88;35.04
38880;BME280;25887;30.194;-97.880;2022-10-16T02:10:57;98346.97;;;31.84;34.82
38880;BME280;25887;30.194;-97.880;2022-10-16T02:13:35;98341.19;;;31.79;35.30
38880;BME280;25887;30.194;-97.880;2022-10-16T02:16:03;98345.06;;;31.75;35.07
38880;BME280;25887;30.194;-97.880;2022-10-16T02:18:29;98349.66;;;31.73;35.13
38880;BME280;25887;30.194;-97.880;2022-10-16T02:21:18;98346.59;;;31.68;35.09
38880;BME280;25887;30.194;-97.880;2022-10-16T02:23:50;98360.97;;;31.65;35.48
38880;BME280;25887;30.194;-97.880;2022-10-16T02:26:19;98364.88;;;31.61;35.42
38880;BME280;25887;30.194;-97.880;2022-10-16T02:28:51;98362.59;;;31.56;35.31
38880;BME280;25887;30.194;-97.880;2022-10-16T02:31:23;98369.03;;;31.54;35.36
38880;BME280;25887;30.194;-97.880;2022-10-16T02:33:53;98371.38;;;31.47;35.53
38880;BME280;25887;30.194;-97.880;2022-10-16T02:36:20;98370.78;;;31.44;35.66
38880;BME280;25887;30.194;-97.880;2022-10-16T02:38:46;98368.53;;;31.39;35.56
38880;BME280;25887;30.194;-97.880;2022-10-16T02:41:12;98372.41;;;31.35;35.82
38880;BME280;25887;30.194;-97.880;2022-10-16T02:43:39;98375.34;;;31.32;36.08
38880;BME280;25887;30.194;-97.880;2022-10-16T02:46:04;98366.66;;;31.30;35.80
38880;BME280;25887;30.194;-97.880;2022-10-16T02:48:34;98379.34;;;31.26;36.04
38880;BME280;25887;30.194;-97.880;2022-10-16T02:51:01;98373.56;;;31.21;36.31
38880;BME280;25887;30.194;-97.880;2022-10-16T02:53:26;98387.34;;;31.15;36.49
38880;BME280;25887;30.194;-97.880;2022-10-16T02:55:55;98378.78;;;31.12;36.42
38880;BME280;25887;30.194;-97.880;2022-10-16T02:58:21;98387.88;;;31.09;36.70
38880;BME280;25887;30.194;-97.880;2022-10-16T03:00:47;98398.75;;;31.06;36.76
38880;BME280;25887;30.194;-97.880;2022-10-16T03:03:13;98398.16;;;31.02;37.03
38880;BME280;25887;30.194;-97.880;2022-10-16T03:05:39;98394.78;;;31.00;37.01
38880;BME280;25887;30.194;-97.880;2022-10-16T03:08:04;98400.22;;;30.99;36.87
38880;BME280;25887;30.194;-97.880;2022-10-16T03:10:30;98393.34;;;30.96;37.14
38880;BME280;25887;30.194;-97.880;2022-10-16T03:12:56;98405.06;;;30.94;37.29
38880;BME280;25887;30.194;-97.880;2022-10-16T03:15:24;98397.38;;;30.91;37.42
38880;BME280;25887;30.194;-97.880;2022-10-16T03:17:58;98398.56;;;30.87;37.73
38880;BME280;25887;30.194;-97.880;2022-10-16T03:20:25;98393.66;;;30.82;37.76
38880;BME280;25887;30.194;-97.880;2022-10-16T03:22:51;98391.25;;;30.79;37.94
38880;BME280;25887;30.194;-97.880;2022-10-16T03:25:17;98388.03;;;30.75;37.75
38880;BME280;25887;30.194;-97.880;2022-10-16T03:27:45;98394.41;;;30.73;37.84
38880;BME280;25887;30.194;-97.880;2022-10-16T03:30:11;98398.28;;;30.69;38.14
38880;BME280;25887;30.194;-97.880;2022-10-16T03:32:37;98406.47;;;30.66;38.01
38880;BME280;25887;30.194;-97.880;2022-10-16T03:35:03;98400.56;;;30.62;38.35
38880;BME280;25887;30.194;-97.880;2022-10-16T03:37:29;98397.34;;;30.59;38.50
38880;BME280;25887;30.194;-97.880;2022-10-16T03:39:54;98392.41;;;30.54;38.68
38880;BME280;25887;30.194;-97.880;2022-10-16T03:42:26;98400.63;;;30.51;38.46
38880;BME280;25887;30.194;-97.880;2022-10-16T03:44:52;98393.03;;;30.46;38.59
38880;BME280;25887;30.194;-97.880;2022-10-16T03:47:18;98402.19;;;30.42;38.77
38880;BME280;25887;30.194;-97.880;2022-10-16T03:49:49;98397.13;;;30.39;38.85
38880;BME280;25887;30.194;-97.880;2022-10-16T03:52:14;98408.72;;;30.38;39.02
38880;BME280;25887;30.194;-97.880;2022-10-16T03:54:40;98399.31;;;30.34;39.25
38880;BME280;25887;30.194;-97.880;2022-10-16T03:57:06;98407.53;;;30.31;39.50
38880;BME280;25887;30.194;-97.880;2022-10-16T03:59:34;98410.44;;;30.28;39.42
38880;BME280;25887;30.194;-97.880;2022-10-16T04:02:00;98398.38;;;30.24;39.19
38880;BME280;25887;30.194;-97.880;2022-10-16T04:04:29;98402.84;;;30.23;39.38
38880;BME280;25887;30.194;-97.880;2022-10-16T04:06:55;98404.91;;;30.20;39.57
38880;BME280;25887;30.194;-97.880;2022-10-16T04:09:21;98415.84;;;30.15;39.91
38880;BME280;25887;30.194;-97.880;2022-10-16T04:11:46;98414.41;;;30.11;40.18
38880;BME280;25887;30.194;-97.880;2022-10-16T04:14:12;98419.22;;;30.06;40.63
38880;BME280;25887;30.194;-97.880;2022-10-16T04:16:38;98424.84;;;30.02;40.46
38880;BME280;25887;30.194;-97.880;2022-10-16T04:19:04;98426.09;;;29.98;40.62
38880;BME280;25887;30.194;-97.880;2022-10-16T04:21:30;98421.97;;;29.93;40.66
38880;BME280;25887;30.194;-97.880;2022-10-16T04:23:55;98425.84;;;29.89;41.23
38880;BME280;25887;30.194;-97.880;2022-10-16T04:26:21;98418.38;;;29.83;41.36
38880;BME280;25887;30.194;-97.880;2022-10-16T04:28:47;98430.16;;;29.79;41.12
38880;BME280;25887;30.194;-97.880;2022-10-16T04:31:13;98435.69;;;29.76;41.56
38880;BME280;25887;30.194;-97.880;2022-10-16T04:33:41;98432.44;;;29.73;41.74
38880;BME280;25887;30.194;-97.880;2022-10-16T04:36:10;98430.03;;;29.69;41.30
38880;BME280;25887;30.194;-97.880;2022-10-16T04:38:36;98432.09;;;29.66;41.61
38880;BME280;25887;30.194;-97.880;2022-10-16T04:41:05;98423.41;;;29.64;41.53
38880;BME280;25887;30.194;-97.880;2022-10-16T04:43:32;98421.84;;;29.61;41.84
38880;BME280;25887;30.194;-97.880;2022-10-16T04:45:58;98420.28;;;29.59;41.65
38880;BME280;25887;30.194;-97.880;2022-10-16T04:48:24;98423.97;;;29.56;41.40
38880;BME280;25887;30.194;-97.880;2022-10-16T04:50:50;98421.47;;;29.55;41.46
38880;BME280;25887;30.194;-97.880;2022-10-16T04:53:16;98415.56;;;29.51;41.75
38880;BME280;25887;30.194;-97.880;2022-10-16T04:55:41;98426.34;;;29.48;42.00
38880;BME280;25887;30.194;-97.880;2022-10-16T04:58:08;98420.47;;;29.45;41.98
38880;BME280;25887;30.194;-97.880;2022-10-16T05:00:34;98419.84;;;29.41;42.24
38880;BME280;25887;30.194;-97.880;2022-10-16T05:03:00;98418.41;;;29.37;42.40
38880;BME280;25887;30.194;-97.880;2022-10-16T05:05:27;98421.28;;;29.34;41.93
38880;BME280;25887;30.194;-97.880;2022-10-16T05:07:53;98425.84;;;29.32;42.04
38880;BME280;25887;30.194;-97.880;2022-10-16T05:10:19;98415.50;;;29.29;41.97
38880;BME280;25887;30.194;-97.880;2022-10-16T05:12:45;98415.63;;;29.27;41.94
38880;BME280;25887;30.194;-97.880;2022-10-16T05:15:11;98415.81;;;29.24;42.16
38880;BME280;25887;30.194;-97.880;2022-10-16T05:17:37;98420.41;;;29.22;42.68
38880;BME280;25887;30.194;-97.880;2022-10-16T05:20:03;98423.28;;;29.19;42.19
38880;BME280;25887;30.194;-97.880;2022-10-16T05:22:31;98420.00;;;29.16;42.45
38880;BME280;25887;30.194;-97.880;2022-10-16T05:24:57;98420.25;;;29.12;42.73
38880;BME280;25887;30.194;-97.880;2022-10-16T05:27:23;98424.91;;;29.09;42.97
38880;BME280;25887;30.194;-97.880;2022-10-16T05:29:49;98427.81;;;29.06;42.82
38880;BME280;25887;30.194;-97.880;2022-10-16T05:32:15;98431.53;;;29.03;43.14
38880;BME280;25887;30.194;-97.880;2022-10-16T05:34:41;98434.28;;;29.02;42.73
38880;BME280;25887;30.194;-97.880;2022-10-16T05:37:07;98428.38;;;28.98;42.96
38880;BME280;25887;30.194;-97.880;2022-10-16T05:39:33;98418.88;;;28.96;42.91
38880;BME280;25887;30.194;-97.880;2022-10-16T05:42:05;98425.22;;;28.93;43.04
38880;BME280;25887;30.194;-97.880;2022-10-16T05:44:31;98430.63;;;28.92;43.42
38880;BME280;25887;30.194;-97.880;2022-10-16T05:46:57;98416.66;;;28.90;43.71
38880;BME280;25887;30.194;-97.880;2022-10-16T05:49:23;98419.50;;;28.86;43.79
38880;BME280;25887;30.194;-97.880;2022-10-16T05:51:52;98412.78;;;28.82;44.05
38880;BME280;25887;30.194;-97.880;2022-10-16T05:54:18;98413.00;;;28.79;43.71
38880;BME280;25887;30.194;-97.880;2022-10-16T05:56:43;98410.47;;;28.78;43.67
38880;BME280;25887;30.194;-97.880;2022-10-16T05:59:09;98414.19;;;28.75;43.92
38880;BME280;25887;30.194;-97.880;2022-10-16T06:01:35;98408.16;;;28.73;44.39
38880;BME280;25887;30.194;-97.880;2022-10-16T06:04:03;98410.94;;;28.72;44.04
38880;BME280;25887;30.194;-97.880;2022-10-16T06:06:29;98408.50;;;28.69;44.05
38880;BME280;25887;30.194;-97.880;2022-10-16T06:08:56;98413.91;;;28.67;43.90
38880;BME280;25887;30.194;-97.880;2022-10-16T06:11:23;98410.41;;;28.67;44.38
38880;BME280;25887;30.194;-97.880;2022-10-16T06:13:50;98414.97;;;28.65;44.23
38880;BME280;25887;30.194;-97.880;2022-10-16T06:16:16;98421.13;;;28.65;44.27
38880;BME280;25887;30.194;-97.880;2022-10-16T06:18:42;98420.34;;;28.63;44.50
38880;BME280;25887;30.194;-97.880;2022-10-16T06:21:12;98421.44;;;28.61;44.42
38880;BME280;25887;30.194;-97.880;2022-10-16T06:23:39;98425.88;;;28.60;44.51
38880;BME280;25887;30.194;-97.880;2022-10-16T06:26:11;98425.88;;;28.60;44.48
38880;BME280;25887;30.194;-97.880;2022-10-16T06:28:40;98420.59;;;28.60;44.82
38880;BME280;25887;30.194;-97.880;2022-10-16T06:31:07;98413.63;;;28.59;44.75
38880;BME280;25887;30.194;-97.880;2022-10-16T06:33:37;98397.97;;;28.56;44.64
38880;BME280;25887;30.194;-97.880;2022-10-16T06:36:09;98404.22;;;28.55;44.98
38880;BME280;25887;30.194;-97.880;2022-10-16T06:38:35;98398.31;;;28.51;44.87
38880;BME280;25887;30.194;-97.880;2022-10-16T06:41:01;98393.88;;;28.52;44.93
38880;BME280;25887;30.194;-97.880;2022-10-16T06:43:30;98394.84;;;28.51;44.71
38880;BME280;25887;30.194;-97.880;2022-10-16T06:46:03;98395.78;;;28.50;45.40
38880;BME280;25887;30.194;-97.880;2022-10-16T06:48:29;98385.34;;;28.48;44.94
38880;BME280;25887;30.194;-97.880;2022-10-16T06:53:22;98370.53;;;28.46;45.10
38880;BME280;25887;30.194;-97.880;2022-10-16T06:55:57;98373.41;;;28.43;44.94
38880;BME280;25887;30.194;-97.880;2022-10-16T06:58:27;98377.00;;;28.42;45.10
38880;BME280;25887;30.194;-97.880;2022-10-16T07:01:02;98373.63;;;28.40;45.25
38880;BME280;25887;30.194;-97.880;2022-10-16T07:03:35;98377.34;;;28.37;45.20
38880;BME280;25887;30.194;-97.880;2022-10-16T07:06:04;98378.41;;;28.35;45.61
38880;BME280;25887;30.194;-97.880;2022-10-16T07:08:33;98375.00;;;28.33;45.47
38880;BME280;25887;30.194;-97.880;2022-10-16T07:11:03;98371.53;;;28.32;45.60
38880;BME280;25887;30.194;-97.880;2022-10-16T07:13:30;98371.66;;;28.30;45.72
38880;BME280;25887;30.194;-97.880;2022-10-16T07:16:19;98366.56;;;28.27;46.07
38880;BME280;25887;30.194;-97.880;2022-10-16T07:18:49;98376.28;;;28.27;45.95
38880;BME280;25887;30.194;-97.880;2022-10-16T07:21:33;98369.41;;;28.24;46.24
38880;BME280;25887;30.194;-97.880;2022-10-16T07:24:03;98368.69;;;28.22;46.29
38880;BME280;25887;30.194;-97.880;2022-10-16T07:26:31;98369.75;;;28.20;46.38
38880;BME280;25887;30.194;-97.880;2022-10-16T07:28:58;98364.59;;;28.18;45.92
38880;BME280;25887;30.194;-97.880;2022-10-16T07:31:24;98365.63;;;28.16;46.03
38880;BME280;25887;30.194;-97.880;2022-10-16T07:33:50;98364.78;;;28.15;46.10
38880;BME280;25887;30.194;-97.880;2022-10-16T07:36:17;98359.63;;;28.14;46.54
38880;BME280;25887;30.194;-97.880;2022-10-16T07:38:46;98359.75;;;28.12;46.34
38880;BME280;25887;30.194;-97.880;2022-10-16T07:41:13;98364.31;;;28.10;46.20
38880;BME280;25887;30.194;-97.880;2022-10-16T07:43:39;98362.59;;;28.09;46.25
38880;BME280;25887;30.194;-97.880;2022-10-16T07:46:05;98360.91;;;28.08;46.55
38880;BME280;25887;30.194;-97.880;2022-10-16T07:48:32;98360.19;;;28.06;46.33
38880;BME280;25887;30.194;-97.880;2022-10-16T07:50:59;98358.50;;;28.05;46.64
38880;BME280;25887;30.194;-97.880;2022-10-16T07:53:28;98361.38;;;28.02;46.84
38880;BME280;25887;30.194;-97.880;2022-10-16T07:56:06;98357.00;;;28.01;47.00
38880;BME280;25887;30.194;-97.880;2022-10-16T07:58:35;98351.00;;;27.99;46.99
38880;BME280;25887;30.194;-97.880;2022-10-16T08:01:05;98349.31;;;27.98;47.22
38880;BME280;25887;30.194;-97.880;2022-10-16T08:03:31;98339.06;;;27.93;46.91
38880;BME280;25887;30.194;-97.880;2022-10-16T08:05:58;98348.06;;;27.91;47.10
38880;BME280;25887;30.194;-97.880;2022-10-16T08:08:27;98335.09;;;27.88;47.29
38880;BME280;25887;30.194;-97.880;2022-10-16T08:10:53;98332.66;;;27.85;47.36
38880;BME280;25887;30.194;-97.880;2022-10-16T08:13:19;98335.53;;;27.82;47.49
38880;BME280;25887;30.194;-97.880;2022-10-16T08:15:48;98337.44;;;27.80;47.39
38880;BME280;25887;30.194;-97.880;2022-10-16T08:18:15;98334.03;;;27.77;47.85
38880;BME280;25887;30.194;-97.880;2022-10-16T08:20:44;98335.94;;;27.75;47.46
38880;BME280;25887;30.194;-97.880;2022-10-16T08:23:10;98338.81;;;27.72;47.83
38880;BME280;25887;30.194;-97.880;2022-10-16T08:25:37;98337.97;;;27.72;47.96
38880;BME280;25887;30.194;-97.880;2022-10-16T08:28:03;98332.81;;;27.70;47.64
38880;BME280;25887;30.194;-97.880;2022-10-16T08:30:30;98330.25;;;27.69;47.65
38880;BME280;25887;30.194;-97.880;2022-10-16T08:33:04;98333.00;;;27.67;47.59
38880;BME280;25887;30.194;-97.880;2022-10-16T08:35:31;98333.84;;;27.68;48.17
38880;BME280;25887;30.194;-97.880;2022-10-16T08:37:57;98323.50;;;27.65;47.99
38880;BME280;25887;30.194;-97.880;2022-10-16T08:40:30;98317.69;;;27.60;48.42
38880;BME280;25887;30.194;-97.880;2022-10-16T08:50:37;98317.69;;;27.60;48.33
38880;BME280;25887;30.194;-97.880;2022-10-16T08:53:07;98320.44;;;27.58;48.62
38880;BME280;25887;30.194;-97.880;2022-10-16T08:55:44;98315.16;;;27.58;48.58
38880;BME280;25887;30.194;-97.880;2022-10-16T08:58:18;98324.75;;;27.59;48.25
38880;BME280;25887;30.194;-97.880;2022-10-16T09:00:50;98310.72;;;27.59;48.23
38880;BME280;25887;30.194;-97.880;2022-10-16T09:08:29;98319.47;;;27.59;48.60
38880;BME280;25887;30.194;-97.880;2022-10-16T09:10:59;98314.19;;;27.59;48.59
38880;BME280;25887;30.194;-97.880;2022-10-16T09:16:27;98308.06;;;27.59;48.84
38880;BME280;25887;30.194;-97.880;2022-10-16T09:18:55;98300.28;;;27.57;48.79
38880;BME280;25887;30.194;-97.880;2022-10-16T09:21:28;98307.34;;;27.57;48.98
38880;BME280;25887;30.194;-97.880;2022-10-16T09:26:47;98299.56;;;27.55;48.95
38880;BME280;25887;30.194;-97.880;2022-10-16T09:29:13;98307.47;;;27.55;48.83
38880;BME280;25887;30.194;-97.880;2022-10-16T09:31:40;98309.22;;;27.55;48.75
38880;BME280;25887;30.194;-97.880;2022-10-16T09:36:54;98313.66;;;27.54;49.02
38880;BME280;25887;30.194;-97.880;2022-10-16T09:39:21;98318.09;;;27.54;49.33
38880;BME280;25887;30.194;-97.880;2022-10-16T09:41:47;98322.53;;;27.53;49.40
38880;BME280;25887;30.194;-97.880;2022-10-16T09:44:35;98320.84;;;27.52;49.23
38880;BME280;25887;30.194;-97.880;2022-10-16T09:47:03;98334.06;;;27.52;49.16
38880;BME280;25887;30.194;-97.880;2022-10-16T09:49:30;98334.06;;;27.52;49.62
38880;BME280;25887;30.194;-97.880;2022-10-16T09:54:55;98340.19;;;27.53;49.42
38880;BME280;25887;30.194;-97.880;2022-10-16T09:57:21;98334.06;;;27.52;49.10
38880;BME280;25887;30.194;-97.880;2022-10-16T09:59:51;98339.34;;;27.52;49.54
38880;BME280;25887;30.194;-97.880;2022-10-16T10:02:18;98338.50;;;27.52;49.31
38880;BME280;25887;30.194;-97.880;2022-10-16T10:04:50;98330.56;;;27.52;49.68
38880;BME280;25887;30.194;-97.880;2022-10-16T10:07:38;98329.00;;;27.49;49.29
38880;BME280;25887;30.194;-97.880;2022-10-16T10:10:05;98328.16;;;27.48;49.34
38880;BME280;25887;30.194;-97.880;2022-10-16T10:12:32;98330.81;;;27.48;49.42
38880;BME280;25887;30.194;-97.880;2022-10-16T10:15:06;98325.59;;;27.47;49.66
38880;BME280;25887;30.194;-97.880;2022-10-16T10:17:44;98345.88;;;27.46;49.70
38880;BME280;25887;30.194;-97.880;2022-10-16T10:22:55;98345.03;;;27.46;49.58
38880;BME280;25887;30.194;-97.880;2022-10-16T10:25:32;98345.03;;;27.46;49.35
38880;BME280;25887;30.194;-97.880;2022-10-16T10:28:10;98343.34;;;27.45;49.58
38880;BME280;25887;30.194;-97.880;2022-10-16T10:39:07;98345.25;;;27.43;49.21
38880;BME280;25887;30.194;-97.880;2022-10-16T10:46:45;98359.28;;;27.43;49.48
38880;BME280;25887;30.194;-97.880;2022-10-16T10:52:05;98362.88;;;27.42;49.27
38880;BME280;25887;30.194;-97.880;2022-10-16T10:54:45;98357.59;;;27.42;49.17
38880;BME280;25887;30.194;-97.880;2022-10-16T11:02:41;98352.44;;;27.41;49.18
38880;BME280;25887;30.194;-97.880;2022-10-16T11:07:45;98349.81;;;27.41;49.25
38880;BME280;25887;30.194;-97.880;2022-10-16T11:10:15;98349.91;;;27.39;49.27
38880;BME280;25887;30.194;-97.880;2022-10-16T11:12:45;98340.28;;;27.38;49.41
38880;BME280;25887;30.194;-97.880;2022-10-16T11:15:28;98337.75;;;27.37;49.31
38880;BME280;25887;30.194;-97.880;2022-10-16T11:21:00;98332.81;;;27.32;49.72
38880;BME280;25887;30.194;-97.880;2022-10-16T11:23:31;98339.13;;;27.30;50.11
38880;BME280;25887;30.194;-97.880;2022-10-16T11:26:00;98347.16;;;27.28;50.07
38880;BME280;25887;30.194;-97.880;2022-10-16T11:28:37;98347.25;;;27.27;49.93
38880;BME280;25887;30.194;-97.880;2022-10-16T11:31:08;98354.44;;;27.25;49.68
38880;BME280;25887;30.194;-97.880;2022-10-16T11:33:59;98353.69;;;27.23;49.90
38880;BME280;25887;30.194;-97.880;2022-10-16T11:36:38;98359.91;;;27.21;49.97
38880;BME280;25887;30.194;-97.880;2022-10-16T11:39:18;98355.59;;;27.20;50.07
38880;BME280;25887;30.194;-97.880;2022-10-16T11:44:38;98368.22;;;27.15;50.45
38880;BME280;25887;30.194;-97.880;2022-10-16T11:49:36;98374.69;;;27.11;50.02
38880;BME280;25887;30.194;-97.880;2022-10-16T11:55:03;98399.38;;;27.10;50.25
38880;BME280;25887;30.194;-97.880;2022-10-16T11:57:33;98409.91;;;27.10;50.26
38880;BME280;25887;30.194;-97.880;2022-10-16T12:00:06;98421.31;;;27.11;50.00
38880;BME280;25887;30.194;-97.880;2022-10-16T12:05:09;98426.47;;;27.12;50.00
38880;BME280;25887;30.194;-97.880;2022-10-16T12:07:41;98433.44;;;27.13;49.94
38880;BME280;25887;30.194;-97.880;2022-10-16T12:10:25;98431.66;;;27.14;49.82
38880;BME280;25887;30.194;-97.880;2022-10-16T12:12:52;98432.59;;;27.13;50.20
38880;BME280;25887;30.194;-97.880;2022-10-16T12:15:28;98433.44;;;27.13;50.02
38880;BME280;25887;30.194;-97.880;2022-10-16T12:17:54;98440.50;;;27.13;50.10
38880;BME280;25887;30.194;-97.880;2022-10-16T12:20:25;98442.31;;;27.12;49.97
38880;BME280;25887;30.194;-97.880;2022-10-16T12:22:55;98445.78;;;27.13;50.30
38880;BME280;25887;30.194;-97.880;2022-10-16T12:25:40;98453.69;;;27.13;49.96
38880;BME280;25887;30.194;-97.880;2022-10-16T12:30:40;98453.59;;;27.14;50.19
38880;BME280;25887;30.194;-97.880;2022-10-16T12:33:23;98461.50;;;27.14;50.05
38880;BME280;25887;30.194;-97.880;2022-10-16T12:35:53;98463.19;;;27.15;50.32
38880;BME280;25887;30.194;-97.880;2022-10-16T12:40:59;98479.00;;;27.15;50.21
38880;BME280;25887;30.194;-97.880;2022-10-16T12:43:35;98479.88;;;27.16;50.03
38880;BME280;25887;30.194;-97.880;2022-10-16T12:48:34;98480.63;;;27.18;50.25
38880;BME280;25887;30.194;-97.880;2022-10-16T12:51:10;98485.78;;;27.19;50.22
38880;BME280;25887;30.194;-97.880;2022-10-16T12:53:39;98479.56;;;27.20;49.95
38880;BME280;25887;30.194;-97.880;2022-10-16T12:56:24;98476.94;;;27.20;50.44
38880;BME280;25887;30.194;-97.880;2022-10-16T13:02:24;98475.03;;;27.23;50.33
38880;BME280;25887;30.194;-97.880;2022-10-16T13:12:18;98477.59;;;27.24;50.29
38880;BME280;25887;30.194;-97.880;2022-10-16T13:17:35;98487.09;;;27.27;50.54
38880;BME280;25887;30.194;-97.880;2022-10-16T13:25:26;98492.13;;;27.30;50.27
38880;BME280;25887;30.194;-97.880;2022-10-16T13:27:59;98488.56;;;27.31;50.62
38880;BME280;25887;30.194;-97.880;2022-10-16T13:30:34;98486.69;;;27.33;50.26
38880;BME280;25887;30.194;-97.880;2022-10-16T13:35:48;98499.75;;;27.34;50.24
38880;BME280;25887;30.194;-97.880;2022-10-16T13:38:15;98502.28;;;27.36;50.54
38880;BME280;25887;30.194;-97.880;2022-10-16T13:41:17;98502.84;;;27.41;50.34
38880;BME280;25887;30.194;-97.880;2022-10-16T13:43:34;98504.84;;;27.50;50.15
38880;BME280;25887;30.194;-97.880;2022-10-16T13:46:05;98507.28;;;27.53;50.69
38880;BME280;25887;30.194;-97.880;2022-10-16T13:48:34;98505.47;;;27.54;50.55
38880;BME280;25887;30.194;-97.880;2022-10-16T13:51:11;98503.50;;;27.57;50.46
38880;BME280;25887;30.194;-97.880;2022-10-16T13:53:38;98509.50;;;27.59;50.87
38880;BME280;25887;30.194;-97.880;2022-10-16T13:56:10;98511.00;;;27.63;50.31
38880;BME280;25887;30.194;-97.880;2022-10-16T13:58:37;98518.81;;;27.65;50.64
38880;BME280;25887;30.194;-97.880;2022-10-16T14:04:08;98515.22;;;27.66;50.98
38880;BME280;25887;30.194;-97.880;2022-10-16T14:06:48;98522.13;;;27.68;50.51
38880;BME280;25887;30.194;-97.880;2022-10-16T14:09:25;98529.75;;;27.73;50.48
38880;BME280;25887;30.194;-97.880;2022-10-16T14:12:10;98526.78;;;27.77;51.06
38880;BME280;25887;30.194;-97.880;2022-10-16T14:14:43;98531.97;;;27.92;51.05
38880;BME280;25887;30.194;-97.880;2022-10-16T14:19:56;98533.66;;;28.44;50.50
38880;BME280;25887;30.194;-97.880;2022-10-16T14:22:43;98530.38;;;28.40;50.39
38880;BME280;25887;30.194;-97.880;2022-10-16T14:28:00;98539.50;;;28.49;50.50
38880;BME280;25887;30.194;-97.880;2022-10-16T14:30:27;98545.69;;;28.48;50.93
38880;BME280;25887;30.194;-97.880;2022-10-16T14:33:00;98537.03;;;28.46;51.01
38880;BME280;25887;30.194;-97.880;2022-10-16T14:37:59;98542.13;;;28.49;50.78
38880;BME280;25887;30.194;-97.880;2022-10-16T14:40:27;98540.22;;;28.51;50.36
38880;BME280;25887;30.194;-97.880;2022-10-16T14:42:55;98536.50;;;28.53;50.44
38880;BME280;25887;30.194;-97.880;2022-10-16T14:45:22;98543.47;;;28.54;50.32
38880;BME280;25887;30.194;-97.880;2022-10-16T14:47:53;98548.66;;;28.56;50.23
38880;BME280;25887;30.194;-97.880;2022-10-16T14:50:20;98555.53;;;28.58;50.52
38880;BME280;25887;30.194;-97.880;2022-10-16T14:52:46;98559.56;;;28.64;50.42